Bad Salzuflen, Germany

7:45 PM CEST on June 30, 2015 (GMT +0200)
Altenhagen | | Change Station
CLOSE
Current Station
Personal Weather Station
Location: Bielefeld, NORDRHEIN-WESTFALEN
Elevation: 338 ft
Nearby Weather Stations

Elev 338 ft 52.04 °N, 8.64 °E | Updated 32 seconds ago

Clear
Clear
82.0 °F
Feels Like 81 °F
N
2.5
Wind Variable Wind from West
Gusts 4.9 mph

Today
High -- | Low -- °F
--% Chance of Precip.
Yesterday
High -- | Low -- °F
Precip. -- in
5:07 AM 9:49 PM
Waxing Gibbous, 98% visible
Pressure 30.15 in
Visibility -9999.0 miles
Clouds
Heat Index 81 °F
Dew Point 49 °F
Humidity 31%
Rainfall 0.00 in
Snow Depth Not available.
UV 1.0 out of 12
Pollen Not available.
Air Quality Not available.
Flu Activity Not available.
METAR EDLP 301720Z 05008KT 340V080 CAVOK 25/09 Q1021 RMK ATIS WHI

More Conditions Fewer Conditions

Pressure 30.15 in
Visibility -9999.0 miles
Clouds
Heat Index 81 °F
Dew Point 49 °F
Humidity 31%
Rainfall 0.00 in
Snow Depth Not available.
UV 1.0 out of 12
Pollen Not available.
Air Quality Not available.
Flu Activity Not available.
METAR EDLP 301720Z 05008KT 340V080 CAVOK 25/09 Q1021 RMK ATIS WHI

More Conditions Fewer Conditions

10-Day Weather Forecast

Almanac

Astronomy

Jun. 30, 2015 Rise Set
Actual Time
Civil Twilight
Nautical Twilight
Astronomical Twilight
Moon
Length of Visible Light
Length of Day
Tomorrow will be .
, % of the Moon is Illuminated

Today's Extremes

Country Highs Country Lows

Community

WunderPhotos

Upload Photos

1,834,039 photos uploaded!

WunderBlogs® & News

Nearby

Air Quality

  Air Quality AQ Index Pollutant
Not available.

Snow Depth

Station Depth Elevation

Earthquake Activity

City Distance Mag. Time & Date
Minimum magnitude displayed is 2.5.

Coastal Water Temperatures

Place Temperature

Stations

Nearby Weather Stations

Station Location Temp. Windchill Dew Point Humidity Wind Precip. Elev Updated Type